sensor_id;sensor_type;location;lat;lon;timestamp;P1;durP1;ratioP1;P2;durP2;ratioP2
17228;SDS011;8731;50.364;8.958;2022-10-31T00:04:14;7.20;;;4.60;;
17228;SDS011;8731;50.364;8.958;2022-10-31T00:08:37;9.33;;;4.63;;
17228;SDS011;8731;50.364;8.958;2022-10-31T00:13:00;8.83;;;4.90;;
17228;SDS011;8731;50.364;8.958;2022-10-31T00:17:22;9.70;;;5.00;;
17228;SDS011;8731;50.364;8.958;2022-10-31T00:21:44;10.90;;;4.93;;
17228;SDS011;8731;50.364;8.958;2022-10-31T00:26:08;11.87;;;5.57;;
17228;SDS011;8731;50.364;8.958;2022-10-31T00:30:31;7.67;;;4.60;;
17228;SDS011;8731;50.364;8.958;2022-10-31T00:34:54;9.90;;;5.33;;
17228;SDS011;8731;50.364;8.958;2022-10-31T00:39:16;10.63;;;4.93;;
17228;SDS011;8731;50.364;8.958;2022-10-31T00:43:40;6.27;;;5.20;;
17228;SDS011;8731;50.364;8.958;2022-10-31T00:48:03;6.73;;;5.10;;
17228;SDS011;8731;50.364;8.958;2022-10-31T00:52:26;6.13;;;4.47;;
17228;SDS011;8731;50.364;8.958;2022-10-31T00:56:48;5.47;;;4.13;;
17228;SDS011;8731;50.364;8.958;2022-10-31T01:01:13;8.30;;;4.70;;
17228;SDS011;8731;50.364;8.958;2022-10-31T01:05:35;9.87;;;4.87;;
17228;SDS011;8731;50.364;8.958;2022-10-31T01:09:57;11.33;;;5.30;;
17228;SDS011;8731;50.364;8.958;2022-10-31T01:14:21;8.60;;;4.83;;
17228;SDS011;8731;50.364;8.958;2022-10-31T01:18:45;6.57;;;4.53;;
17228;SDS011;8731;50.364;8.958;2022-10-31T01:23:08;5.97;;;3.97;;
17228;SDS011;8731;50.364;8.958;2022-10-31T01:27:30;6.27;;;4.33;;
17228;SDS011;8731;50.364;8.958;2022-10-31T01:31:53;8.83;;;4.23;;
17228;SDS011;8731;50.364;8.958;2022-10-31T01:36:18;5.33;;;4.07;;
17228;SDS011;8731;50.364;8.958;2022-10-31T01:40:44;6.10;;;4.30;;
17228;SDS011;8731;50.364;8.958;2022-10-31T01:45:09;7.23;;;4.17;;
17228;SDS011;8731;50.364;8.958;2022-10-31T01:49:35;8.80;;;4.37;;
17228;SDS011;8731;50.364;8.958;2022-10-31T01:54:06;5.67;;;4.13;;
17228;SDS011;8731;50.364;8.958;2022-10-31T01:58:33;9.20;;;4.80;;
17228;SDS011;8731;50.364;8.958;2022-10-31T02:02:56;6.57;;;3.83;;
17228;SDS011;8731;50.364;8.958;2022-10-31T02:07:22;4.87;;;3.77;;
17228;SDS011;8731;50.364;8.958;2022-10-31T02:11:54;8.17;;;4.53;;
17228;SDS011;8731;50.364;8.958;2022-10-31T02:16:19;7.63;;;5.00;;
17228;SDS011;8731;50.364;8.958;2022-10-31T02:20:45;8.37;;;4.80;;
17228;SDS011;8731;50.364;8.958;2022-10-31T02:25:25;10.30;;;5.40;;
17228;SDS011;8731;50.364;8.958;2022-10-31T02:30:20;7.13;;;4.73;;
17228;SDS011;8731;50.364;8.958;2022-10-31T02:34:48;10.37;;;7.23;;
17228;SDS011;8731;50.364;8.958;2022-10-31T02:39:26;9.53;;;6.17;;
17228;SDS011;8731;50.364;8.958;2022-10-31T02:44:02;7.13;;;5.33;;
17228;SDS011;8731;50.364;8.958;2022-10-31T02:48:33;8.23;;;4.77;;
17228;SDS011;8731;50.364;8.958;2022-10-31T02:53:02;7.90;;;4.83;;
17228;SDS011;8731;50.364;8.958;2022-10-31T02:57:25;7.93;;;5.17;;
17228;SDS011;8731;50.364;8.958;2022-10-31T03:02:06;7.97;;;4.93;;
17228;SDS011;8731;50.364;8.958;2022-10-31T03:06:41;7.57;;;4.70;;
17228;SDS011;8731;50.364;8.958;2022-10-31T03:11:13;11.43;;;4.83;;
17228;SDS011;8731;50.364;8.958;2022-10-31T03:15:37;6.53;;;4.30;;
17228;SDS011;8731;50.364;8.958;2022-10-31T03:20:05;6.87;;;4.60;;
17228;SDS011;8731;50.364;8.958;2022-10-31T03:24:32;5.57;;;4.40;;
17228;SDS011;8731;50.364;8.958;2022-10-31T03:29:03;8.67;;;4.30;;
17228;SDS011;8731;50.364;8.958;2022-10-31T03:33:33;5.90;;;4.20;;
17228;SDS011;8731;50.364;8.958;2022-10-31T03:37:59;5.50;;;4.13;;
17228;SDS011;8731;50.364;8.958;2022-10-31T03:42:27;7.10;;;4.23;;
17228;SDS011;8731;50.364;8.958;2022-10-31T03:46:57;6.30;;;4.10;;
17228;SDS011;8731;50.364;8.958;2022-10-31T03:51:22;4.97;;;3.90;;
17228;SDS011;8731;50.364;8.958;2022-10-31T03:55:52;5.97;;;4.33;;
17228;SDS011;8731;50.364;8.958;2022-10-31T04:00:26;9.80;;;5.37;;
17228;SDS011;8731;50.364;8.958;2022-10-31T04:04:50;5.07;;;3.97;;
17228;SDS011;8731;50.364;8.958;2022-10-31T04:09:13;8.37;;;4.43;;
17228;SDS011;8731;50.364;8.958;2022-10-31T04:13:37;6.77;;;5.10;;
17228;SDS011;8731;50.364;8.958;2022-10-31T04:18:08;12.13;;;5.83;;
17228;SDS011;8731;50.364;8.958;2022-10-31T04:22:32;11.47;;;6.30;;
17228;SDS011;8731;50.364;8.958;2022-10-31T04:26:54;12.33;;;5.50;;
17228;SDS011;8731;50.364;8.958;2022-10-31T04:31:17;13.37;;;5.50;;
17228;SDS011;8731;50.364;8.958;2022-10-31T04:35:42;6.40;;;4.97;;
17228;SDS011;8731;50.364;8.958;2022-10-31T04:40:07;9.67;;;5.60;;
17228;SDS011;8731;50.364;8.958;2022-10-31T04:44:49;6.40;;;5.30;;
17228;SDS011;8731;50.364;8.958;2022-10-31T04:49:12;8.67;;;5.87;;
17228;SDS011;8731;50.364;8.958;2022-10-31T04:53:35;10.20;;;6.47;;
17228;SDS011;8731;50.364;8.958;2022-10-31T04:58:19;7.90;;;6.10;;
17228;SDS011;8731;50.364;8.958;2022-10-31T05:02:42;14.80;;;8.27;;
17228;SDS011;8731;50.364;8.958;2022-10-31T05:07:06;10.47;;;6.10;;
17228;SDS011;8731;50.364;8.958;2022-10-31T05:11:28;12.10;;;5.80;;
17228;SDS011;8731;50.364;8.958;2022-10-31T05:16:03;8.90;;;5.70;;
17228;SDS011;8731;50.364;8.958;2022-10-31T05:20:32;13.63;;;5.70;;
17228;SDS011;8731;50.364;8.958;2022-10-31T05:25:21;7.70;;;6.00;;
17228;SDS011;8731;50.364;8.958;2022-10-31T05:29:46;12.00;;;6.53;;
17228;SDS011;8731;50.364;8.958;2022-10-31T05:34:09;6.30;;;5.23;;
17228;SDS011;8731;50.364;8.958;2022-10-31T05:38:50;15.07;;;7.00;;
17228;SDS011;8731;50.364;8.958;2022-10-31T05:43:24;10.67;;;7.77;;
17228;SDS011;8731;50.364;8.958;2022-10-31T05:47:51;12.80;;;8.00;;
17228;SDS011;8731;50.364;8.958;2022-10-31T05:52:35;12.97;;;8.53;;
17228;SDS011;8731;50.364;8.958;2022-10-31T05:57:20;35.60;;;9.77;;
17228;SDS011;8731;50.364;8.958;2022-10-31T06:01:42;72.43;;;9.97;;
17228;SDS011;8731;50.364;8.958;2022-10-31T06:06:23;68.30;;;9.67;;
17228;SDS011;8731;50.364;8.958;2022-10-31T06:10:47;172.13;;;11.70;;
17228;SDS011;8731;50.364;8.958;2022-10-31T06:15:16;120.20;;;11.03;;
17228;SDS011;8731;50.364;8.958;2022-10-31T06:19:39;259.13;;;14.93;;
17228;SDS011;8731;50.364;8.958;2022-10-31T06:24:03;47.63;;;9.00;;
17228;SDS011;8731;50.364;8.958;2022-10-31T06:28:47;87.57;;;9.27;;
17228;SDS011;8731;50.364;8.958;2022-10-31T06:33:29;47.20;;;7.90;;
17228;SDS011;8731;50.364;8.958;2022-10-31T06:37:54;22.03;;;7.00;;
17228;SDS011;8731;50.364;8.958;2022-10-31T06:42:26;8.27;;;6.20;;
17228;SDS011;8731;50.364;8.958;2022-10-31T06:46:50;16.03;;;7.67;;
17228;SDS011;8731;50.364;8.958;2022-10-31T06:51:30;9.50;;;6.27;;
17228;SDS011;8731;50.364;8.958;2022-10-31T06:55:53;7.90;;;6.23;;
17228;SDS011;8731;50.364;8.958;2022-10-31T07:00:18;13.43;;;5.90;;
17228;SDS011;8731;50.364;8.958;2022-10-31T07:04:48;13.27;;;5.27;;
17228;SDS011;8731;50.364;8.958;2022-10-31T07:09:12;9.40;;;4.63;;
17228;SDS011;8731;50.364;8.958;2022-10-31T07:13:35;6.93;;;4.87;;
17228;SDS011;8731;50.364;8.958;2022-10-31T07:18:00;17.03;;;5.20;;
17228;SDS011;8731;50.364;8.958;2022-10-31T07:22:31;23.63;;;5.67;;
17228;SDS011;8731;50.364;8.958;2022-10-31T07:26:56;19.30;;;6.33;;
17228;SDS011;8731;50.364;8.958;2022-10-31T07:31:18;10.10;;;6.13;;
17228;SDS011;8731;50.364;8.958;2022-10-31T07:35:42;9.97;;;6.00;;
17228;SDS011;8731;50.364;8.958;2022-10-31T07:40:14;8.90;;;5.50;;
17228;SDS011;8731;50.364;8.958;2022-10-31T07:44:37;8.47;;;5.80;;
17228;SDS011;8731;50.364;8.958;2022-10-31T07:49:22;11.23;;;6.57;;
17228;SDS011;8731;50.364;8.958;2022-10-31T07:54:04;13.80;;;6.30;;
17228;SDS011;8731;50.364;8.958;2022-10-31T07:58:27;42.17;;;6.73;;
17228;SDS011;8731;50.364;8.958;2022-10-31T08:02:56;20.10;;;6.27;;
17228;SDS011;8731;50.364;8.958;2022-10-31T08:07:42;22.57;;;6.50;;
17228;SDS011;8731;50.364;8.958;2022-10-31T08:12:11;14.77;;;6.80;;
17228;SDS011;8731;50.364;8.958;2022-10-31T08:16:36;6.40;;;4.90;;
17228;SDS011;8731;50.364;8.958;2022-10-31T08:21:00;9.00;;;5.30;;
17228;SDS011;8731;50.364;8.958;2022-10-31T08:25:23;6.47;;;5.10;;
17228;SDS011;8731;50.364;8.958;2022-10-31T08:29:47;7.53;;;5.83;;
17228;SDS011;8731;50.364;8.958;2022-10-31T08:34:11;8.00;;;4.87;;
17228;SDS011;8731;50.364;8.958;2022-10-31T08:38:59;6.77;;;5.07;;
17228;SDS011;8731;50.364;8.958;2022-10-31T08:43:22;7.90;;;5.10;;
17228;SDS011;8731;50.364;8.958;2022-10-31T08:47:44;12.53;;;5.97;;
17228;SDS011;8731;50.364;8.958;2022-10-31T08:52:08;7.63;;;5.47;;
17228;SDS011;8731;50.364;8.958;2022-10-31T08:56:33;7.93;;;6.13;;
17228;SDS011;8731;50.364;8.958;2022-10-31T09:01:00;10.87;;;5.90;;
17228;SDS011;8731;50.364;8.958;2022-10-31T09:05:23;5.93;;;4.87;;
17228;SDS011;8731;50.364;8.958;2022-10-31T09:09:47;7.50;;;4.60;;
17228;SDS011;8731;50.364;8.958;2022-10-31T09:14:12;5.63;;;4.40;;
17228;SDS011;8731;50.364;8.958;2022-10-31T09:19:07;8.00;;;5.53;;
17228;SDS011;8731;50.364;8.958;2022-10-31T09:23:29;6.40;;;4.63;;
17228;SDS011;8731;50.364;8.958;2022-10-31T09:27:56;8.67;;;4.90;;
17228;SDS011;8731;50.364;8.958;2022-10-31T09:32:19;7.97;;;6.10;;
17228;SDS011;8731;50.364;8.958;2022-10-31T09:36:41;13.40;;;4.47;;
17228;SDS011;8731;50.364;8.958;2022-10-31T09:41:13;6.70;;;4.20;;
17228;SDS011;8731;50.364;8.958;2022-10-31T09:45:50;6.13;;;5.53;;
17228;SDS011;8731;50.364;8.958;2022-10-31T09:50:38;9.53;;;8.53;;
17228;SDS011;8731;50.364;8.958;2022-10-31T09:55:30;14.50;;;4.47;;
17228;SDS011;8731;50.364;8.958;2022-10-31T09:59:59;7.13;;;4.20;;
17228;SDS011;8731;50.364;8.958;2022-10-31T10:04:36;9.77;;;5.47;;
17228;SDS011;8731;50.364;8.958;2022-10-31T10:09:09;8.47;;;6.37;;
17228;SDS011;8731;50.364;8.958;2022-10-31T10:18:45;5.60;;;5.10;;
17228;SDS011;8731;50.364;8.958;2022-10-31T10:23:27;7.33;;;4.83;;
17228;SDS011;8731;50.364;8.958;2022-10-31T10:28:08;5.37;;;4.87;;
17228;SDS011;8731;50.364;8.958;2022-10-31T10:32:42;5.57;;;5.00;;
17228;SDS011;8731;50.364;8.958;2022-10-31T10:37:08;4.83;;;4.43;;
17228;SDS011;8731;50.364;8.958;2022-10-31T10:41:47;5.47;;;5.00;;
17228;SDS011;8731;50.364;8.958;2022-10-31T10:46:26;5.43;;;4.73;;
17228;SDS011;8731;50.364;8.958;2022-10-31T10:51:22;8.00;;;4.83;;
17228;SDS011;8731;50.364;8.958;2022-10-31T10:55:56;4.57;;;4.17;;
17228;SDS011;8731;50.364;8.958;2022-10-31T11:00:29;5.93;;;5.33;;
17228;SDS011;8731;50.364;8.958;2022-10-31T11:04:56;5.60;;;5.00;;
17228;SDS011;8731;50.364;8.958;2022-10-31T11:09:21;4.20;;;3.90;;
17228;SDS011;8731;50.364;8.958;2022-10-31T11:13:44;5.03;;;4.53;;
17228;SDS011;8731;50.364;8.958;2022-10-31T11:18:14;6.10;;;4.90;;
17228;SDS011;8731;50.364;8.958;2022-10-31T11:22:44;4.50;;;4.10;;
17228;SDS011;8731;50.364;8.958;2022-10-31T11:27:13;4.83;;;3.87;;
17228;SDS011;8731;50.364;8.958;2022-10-31T11:31:43;4.20;;;3.50;;
17228;SDS011;8731;50.364;8.958;2022-10-31T11:36:16;3.50;;;3.20;;
17228;SDS011;8731;50.364;8.958;2022-10-31T11:40:50;4.13;;;3.50;;
17228;SDS011;8731;50.364;8.958;2022-10-31T11:45:16;5.07;;;3.60;;
17228;SDS011;8731;50.364;8.958;2022-10-31T11:49:48;5.13;;;3.43;;
17228;SDS011;8731;50.364;8.958;2022-10-31T11:54:18;4.10;;;3.73;;
17228;SDS011;8731;50.364;8.958;2022-10-31T11:58:54;4.70;;;3.47;;
17228;SDS011;8731;50.364;8.958;2022-10-31T12:03:33;3.97;;;3.67;;
17228;SDS011;8731;50.364;8.958;2022-10-31T12:08:12;6.73;;;3.60;;
17228;SDS011;8731;50.364;8.958;2022-10-31T12:12:47;3.97;;;3.67;;
17228;SDS011;8731;50.364;8.958;2022-10-31T12:17:36;5.00;;;3.67;;
17228;SDS011;8731;50.364;8.958;2022-10-31T12:22:10;6.97;;;4.07;;
17228;SDS011;8731;50.364;8.958;2022-10-31T12:26:47;5.90;;;4.40;;
17228;SDS011;8731;50.364;8.958;2022-10-31T12:31:27;4.57;;;4.07;;
17228;SDS011;8731;50.364;8.958;2022-10-31T12:36:07;5.07;;;3.87;;
17228;SDS011;8731;50.364;8.958;2022-10-31T12:41:03;5.20;;;4.03;;
17228;SDS011;8731;50.364;8.958;2022-10-31T12:45:55;5.73;;;4.23;;
17228;SDS011;8731;50.364;8.958;2022-10-31T12:50:25;7.10;;;4.40;;
17228;SDS011;8731;50.364;8.958;2022-10-31T12:55:03;4.90;;;4.40;;
17228;SDS011;8731;50.364;8.958;2022-10-31T12:59:43;6.50;;;4.37;;
17228;SDS011;8731;50.364;8.958;2022-10-31T13:04:12;6.20;;;4.93;;
17228;SDS011;8731;50.364;8.958;2022-10-31T13:08:43;6.53;;;4.60;;
17228;SDS011;8731;50.364;8.958;2022-10-31T13:13:12;9.10;;;4.93;;
17228;SDS011;8731;50.364;8.958;2022-10-31T13:17:41;8.20;;;5.67;;
17228;SDS011;8731;50.364;8.958;2022-10-31T13:22:09;7.67;;;5.73;;
17228;SDS011;8731;50.364;8.958;2022-10-31T13:26:40;5.67;;;4.90;;
17228;SDS011;8731;50.364;8.958;2022-10-31T13:31:08;8.70;;;5.23;;
17228;SDS011;8731;50.364;8.958;2022-10-31T13:35:31;6.23;;;5.63;;
17228;SDS011;8731;50.364;8.958;2022-10-31T13:40:11;7.63;;;5.87;;
17228;SDS011;8731;50.364;8.958;2022-10-31T13:44:46;10.30;;;6.57;;
17228;SDS011;8731;50.364;8.958;2022-10-31T13:49:23;9.60;;;6.00;;
17228;SDS011;8731;50.364;8.958;2022-10-31T13:54:00;7.20;;;5.80;;
17228;SDS011;8731;50.364;8.958;2022-10-31T13:58:40;7.70;;;5.93;;
17228;SDS011;8731;50.364;8.958;2022-10-31T14:03:21;11.70;;;5.67;;
17228;SDS011;8731;50.364;8.958;2022-10-31T14:07:48;9.87;;;5.67;;
17228;SDS011;8731;50.364;8.958;2022-10-31T14:12:14;13.73;;;6.17;;
17228;SDS011;8731;50.364;8.958;2022-10-31T14:16:53;7.73;;;5.60;;
17228;SDS011;8731;50.364;8.958;2022-10-31T14:21:27;11.53;;;5.83;;
17228;SDS011;8731;50.364;8.958;2022-10-31T14:25:52;7.47;;;5.50;;
17228;SDS011;8731;50.364;8.958;2022-10-31T14:30:15;8.80;;;6.23;;
17228;SDS011;8731;50.364;8.958;2022-10-31T14:34:42;11.00;;;7.70;;
17228;SDS011;8731;50.364;8.958;2022-10-31T14:39:17;9.97;;;6.63;;
17228;SDS011;8731;50.364;8.958;2022-10-31T14:43:50;14.40;;;7.47;;
17228;SDS011;8731;50.364;8.958;2022-10-31T14:48:46;13.70;;;7.10;;
17228;SDS011;8731;50.364;8.958;2022-10-31T14:53:27;22.53;;;15.20;;
17228;SDS011;8731;50.364;8.958;2022-10-31T14:57:55;14.13;;;7.20;;
17228;SDS011;8731;50.364;8.958;2022-10-31T15:02:23;9.57;;;6.20;;
17228;SDS011;8731;50.364;8.958;2022-10-31T15:06:51;10.33;;;6.93;;
17228;SDS011;8731;50.364;8.958;2022-10-31T15:11:21;10.33;;;6.87;;
17228;SDS011;8731;50.364;8.958;2022-10-31T15:15:47;14.40;;;8.13;;
17228;SDS011;8731;50.364;8.958;2022-10-31T15:20:16;15.33;;;7.00;;
17228;SDS011;8731;50.364;8.958;2022-10-31T15:24:43;14.10;;;9.00;;
17228;SDS011;8731;50.364;8.958;2022-10-31T15:29:11;16.00;;;9.47;;
17228;SDS011;8731;50.364;8.958;2022-10-31T15:33:40;14.03;;;8.33;;
17228;SDS011;8731;50.364;8.958;2022-10-31T15:38:06;12.37;;;8.90;;
17228;SDS011;8731;50.364;8.958;2022-10-31T15:42:34;14.73;;;8.70;;
17228;SDS011;8731;50.364;8.958;2022-10-31T15:47:02;14.50;;;9.87;;
17228;SDS011;8731;50.364;8.958;2022-10-31T15:51:30;13.80;;;10.83;;
17228;SDS011;8731;50.364;8.958;2022-10-31T15:55:57;16.83;;;10.87;;
17228;SDS011;8731;50.364;8.958;2022-10-31T16:00:24;15.07;;;10.77;;
17228;SDS011;8731;50.364;8.958;2022-10-31T16:04:50;16.60;;;12.03;;
17228;SDS011;8731;50.364;8.958;2022-10-31T16:09:20;10.53;;;9.40;;
17228;SDS011;8731;50.364;8.958;2022-10-31T16:13:52;15.93;;;12.33;;
17228;SDS011;8731;50.364;8.958;2022-10-31T16:18:18;19.10;;;12.50;;
17228;SDS011;8731;50.364;8.958;2022-10-31T16:22:40;16.63;;;11.97;;
17228;SDS011;8731;50.364;8.958;2022-10-31T16:27:15;14.17;;;11.17;;
17228;SDS011;8731;50.364;8.958;2022-10-31T16:31:45;13.80;;;11.40;;
17228;SDS011;8731;50.364;8.958;2022-10-31T16:40:53;14.97;;;11.93;;
17228;SDS011;8731;50.364;8.958;2022-10-31T16:45:17;15.90;;;11.63;;
17228;SDS011;8731;50.364;8.958;2022-10-31T16:49:42;18.73;;;11.53;;
17228;SDS011;8731;50.364;8.958;2022-10-31T16:54:07;17.47;;;12.37;;
17228;SDS011;8731;50.364;8.958;2022-10-31T16:58:31;20.63;;;13.60;;
17228;SDS011;8731;50.364;8.958;2022-10-31T17:02:57;20.33;;;12.17;;
17228;SDS011;8731;50.364;8.958;2022-10-31T17:07:19;17.03;;;11.27;;
17228;SDS011;8731;50.364;8.958;2022-10-31T17:11:43;12.70;;;9.27;;
17228;SDS011;8731;50.364;8.958;2022-10-31T17:16:08;14.77;;;9.37;;
17228;SDS011;8731;50.364;8.958;2022-10-31T17:20:35;12.80;;;7.47;;
17228;SDS011;8731;50.364;8.958;2022-10-31T17:24:57;9.90;;;6.33;;
17228;SDS011;8731;50.364;8.958;2022-10-31T17:29:19;9.30;;;4.90;;
17228;SDS011;8731;50.364;8.958;2022-10-31T17:33:41;7.37;;;4.80;;
17228;SDS011;8731;50.364;8.958;2022-10-31T17:38:05;11.00;;;4.70;;
17228;SDS011;8731;50.364;8.958;2022-10-31T17:42:27;10.23;;;5.10;;
17228;SDS011;8731;50.364;8.958;2022-10-31T17:46:50;11.60;;;5.53;;
17228;SDS011;8731;50.364;8.958;2022-10-31T17:51:12;9.90;;;5.57;;
17228;SDS011;8731;50.364;8.958;2022-10-31T17:55:36;12.20;;;5.57;;
17228;SDS011;8731;50.364;8.958;2022-10-31T17:59:58;13.57;;;7.03;;
17228;SDS011;8731;50.364;8.958;2022-10-31T18:04:20;12.33;;;6.60;;
17228;SDS011;8731;50.364;8.958;2022-10-31T18:08:43;11.27;;;7.20;;
17228;SDS011;8731;50.364;8.958;2022-10-31T18:13:07;13.07;;;6.80;;
17228;SDS011;8731;50.364;8.958;2022-10-31T18:17:29;10.23;;;6.50;;
17228;SDS011;8731;50.364;8.958;2022-10-31T18:21:51;12.60;;;7.73;;
17228;SDS011;8731;50.364;8.958;2022-10-31T18:26:14;11.30;;;6.03;;
17228;SDS011;8731;50.364;8.958;2022-10-31T18:30:38;13.87;;;6.80;;
17228;SDS011;8731;50.364;8.958;2022-10-31T18:35:02;16.57;;;6.63;;
17228;SDS011;8731;50.364;8.958;2022-10-31T18:39:24;8.80;;;6.20;;
17228;SDS011;8731;50.364;8.958;2022-10-31T18:43:47;12.33;;;6.00;;
17228;SDS011;8731;50.364;8.958;2022-10-31T18:48:12;9.50;;;7.27;;
17228;SDS011;8731;50.364;8.958;2022-10-31T18:52:36;10.93;;;7.00;;
17228;SDS011;8731;50.364;8.958;2022-10-31T18:56:58;9.57;;;6.10;;
17228;SDS011;8731;50.364;8.958;2022-10-31T19:01:21;12.30;;;6.63;;
17228;SDS011;8731;50.364;8.958;2022-10-31T19:05:44;9.67;;;6.50;;
17228;SDS011;8731;50.364;8.958;2022-10-31T19:10:07;9.87;;;6.67;;
17228;SDS011;8731;50.364;8.958;2022-10-31T19:14:29;9.70;;;6.27;;
17228;SDS011;8731;50.364;8.958;2022-10-31T19:18:52;11.93;;;6.03;;
17228;SDS011;8731;50.364;8.958;2022-10-31T19:23:17;13.43;;;7.73;;
17228;SDS011;8731;50.364;8.958;2022-10-31T19:27:39;14.43;;;8.53;;
17228;SDS011;8731;50.364;8.958;2022-10-31T19:32:02;10.47;;;7.60;;
17228;SDS011;8731;50.364;8.958;2022-10-31T19:36:24;13.00;;;6.80;;
17228;SDS011;8731;50.364;8.958;2022-10-31T19:40:50;18.33;;;13.70;;
17228;SDS011;8731;50.364;8.958;2022-10-31T19:45:18;14.27;;;8.00;;
17228;SDS011;8731;50.364;8.958;2022-10-31T19:49:40;13.90;;;9.20;;
17228;SDS011;8731;50.364;8.958;2022-10-31T19:54:02;15.17;;;9.20;;
17228;SDS011;8731;50.364;8.958;2022-10-31T19:58:27;11.90;;;8.23;;
17228;SDS011;8731;50.364;8.958;2022-10-31T20:02:53;14.77;;;7.37;;
17228;SDS011;8731;50.364;8.958;2022-10-31T20:07:15;11.20;;;8.13;;
17228;SDS011;8731;50.364;8.958;2022-10-31T20:11:37;16.00;;;9.93;;
17228;SDS011;8731;50.364;8.958;2022-10-31T20:16:03;15.50;;;8.93;;
17228;SDS011;8731;50.364;8.958;2022-10-31T20:20:29;13.23;;;9.30;;
17228;SDS011;8731;50.364;8.958;2022-10-31T20:24:53;13.10;;;9.03;;
17228;SDS011;8731;50.364;8.958;2022-10-31T20:29:15;11.17;;;8.90;;
17228;SDS011;8731;50.364;8.958;2022-10-31T20:33:40;12.17;;;8.60;;
17228;SDS011;8731;50.364;8.958;2022-10-31T20:38:02;12.60;;;8.53;;
17228;SDS011;8731;50.364;8.958;2022-10-31T20:42:26;13.37;;;9.37;;
17228;SDS011;8731;50.364;8.958;2022-10-31T20:46:48;13.20;;;9.13;;
17228;SDS011;8731;50.364;8.958;2022-10-31T20:51:12;16.13;;;9.57;;
17228;SDS011;8731;50.364;8.958;2022-10-31T20:55:37;13.70;;;9.83;;
17228;SDS011;8731;50.364;8.958;2022-10-31T20:59:59;18.17;;;12.13;;
17228;SDS011;8731;50.364;8.958;2022-10-31T21:04:22;14.70;;;11.30;;
17228;SDS011;8731;50.364;8.958;2022-10-31T21:08:46;16.97;;;10.87;;
17228;SDS011;8731;50.364;8.958;2022-10-31T21:13:08;13.10;;;9.83;;
17228;SDS011;8731;50.364;8.958;2022-10-31T21:17:30;15.53;;;9.00;;
17228;SDS011;8731;50.364;8.958;2022-10-31T21:21:53;14.97;;;9.40;;
17228;SDS011;8731;50.364;8.958;2022-10-31T21:26:17;12.50;;;9.37;;
17228;SDS011;8731;50.364;8.958;2022-10-31T21:30:42;22.90;;;9.07;;
17228;SDS011;8731;50.364;8.958;2022-10-31T21:35:09;12.67;;;8.00;;
17228;SDS011;8731;50.364;8.958;2022-10-31T21:39:31;12.73;;;8.47;;
17228;SDS011;8731;50.364;8.958;2022-10-31T21:43:55;9.53;;;8.30;;
17228;SDS011;8731;50.364;8.958;2022-10-31T21:48:18;10.60;;;7.47;;
17228;SDS011;8731;50.364;8.958;2022-10-31T21:52:40;13.17;;;7.73;;
17228;SDS011;8731;50.364;8.958;2022-10-31T21:57:03;13.40;;;9.57;;
17228;SDS011;8731;50.364;8.958;2022-10-31T22:01:27;14.70;;;9.40;;
17228;SDS011;8731;50.364;8.958;2022-10-31T22:05:50;14.80;;;9.67;;
17228;SDS011;8731;50.364;8.958;2022-10-31T22:10:12;12.33;;;7.80;;
17228;SDS011;8731;50.364;8.958;2022-10-31T22:14:35;16.53;;;7.90;;
17228;SDS011;8731;50.364;8.958;2022-10-31T22:18:58;13.33;;;7.80;;
17228;SDS011;8731;50.364;8.958;2022-10-31T22:23:24;17.47;;;8.30;;
17228;SDS011;8731;50.364;8.958;2022-10-31T22:27:46;9.43;;;7.00;;
17228;SDS011;8731;50.364;8.958;2022-10-31T22:32:08;14.07;;;8.03;;
17228;SDS011;8731;50.364;8.958;2022-10-31T22:36:34;15.27;;;9.77;;
17228;SDS011;8731;50.364;8.958;2022-10-31T22:40:58;16.10;;;11.37;;
17228;SDS011;8731;50.364;8.958;2022-10-31T22:45:21;19.37;;;11.93;;
17228;SDS011;8731;50.364;8.958;2022-10-31T22:49:44;17.40;;;12.23;;
17228;SDS011;8731;50.364;8.958;2022-10-31T22:54:08;18.30;;;11.37;;
17228;SDS011;8731;50.364;8.958;2022-10-31T22:58:35;21.00;;;13.27;;
17228;SDS011;8731;50.364;8.958;2022-10-31T23:02:57;16.03;;;12.57;;
17228;SDS011;8731;50.364;8.958;2022-10-31T23:07:20;14.50;;;11.20;;
17228;SDS011;8731;50.364;8.958;2022-10-31T23:11:44;14.40;;;11.77;;
17228;SDS011;8731;50.364;8.958;2022-10-31T23:16:06;17.57;;;12.00;;
17228;SDS011;8731;50.364;8.958;2022-10-31T23:20:30;16.40;;;12.03;;
17228;SDS011;8731;50.364;8.958;2022-10-31T23:24:52;15.87;;;11.80;;
17228;SDS011;8731;50.364;8.958;2022-10-31T23:29:15;16.37;;;12.40;;
17228;SDS011;8731;50.364;8.958;2022-10-31T23:33:38;19.10;;;10.93;;
17228;SDS011;8731;50.364;8.958;2022-10-31T23:38:00;13.43;;;8.60;;
17228;SDS011;8731;50.364;8.958;2022-10-31T23:42:23;13.20;;;9.23;;
17228;SDS011;8731;50.364;8.958;2022-10-31T23:46:47;13.07;;;8.70;;
17228;SDS011;8731;50.364;8.958;2022-10-31T23:51:10;11.97;;;8.90;;
17228;SDS011;8731;50.364;8.958;2022-10-31T23:55:32;13.60;;;9.13;;
17228;SDS011;8731;50.364;8.958;2022-10-31T23:59:54;10.87;;;8.97;;
